Accueil
METAR-TAF:

METAR-TAF

Aéroports :

Aéroport de Burgos

Burgos, Espagne

latitude: 42-22N, longitude: 003-38W, altitude: 894 m

Observation

Le bulletin a été fait il y a 24 minutes, à 06:30 UTC
Vent 4 kt de nord-est
Température 2°C
Humidité 93%
Pression 1029 hPa
Visibilité 10 km ou plus
Nuages épars à une hauteur de 1000 ft
Nuages fragmentés à une hauteur de 2200 ft

METAR: LEBG 200630Z 04004KT 9999 SCT010 BKN022 02/01 Q1029

Heure: 07:54 (06:54 UTC)

Prévision

Le bulletin a été fait il y a 1 heure et 54 minutes, à 05:00 UTC
Prévision valable du 20 à 06 UTC au 20 à 15 UTC
Vent 8 kt de nord/nord-est
Visibilité 10 km ou plus
Ciel couvert à une hauteur de 1800 ft
Probabilité 30%
du 20 à 06 UTC au 20 à 10 UTC
Visibilité: 3000 m
Ciel couvert à une hauteur de 1200 ft
brume

TAF: LEBG 200500Z 2006/2015 03008KT 9999 OVC018 PROB30 2006/2010 3000 BR OVC012

Observations et prévisions météorologiques de plus de 4000 aéroports (messages METAR et TAF).

Les stations disponibles sont représentées par des disques jaunes et rouges sur la carte.

Passer la souris dessus pour voir le nom de la station.

Cliquer dessus pour voir les observations et prévisions météorologiques.

Pour changer de carte: cliquez sur les boutons verts avec une croix noire pour zoomer, sur le bouton vert avec un tiret pour effectuer un zoom arrière, ou sur les flèches vertes pour les cartes adjacentes.


METAR-TAF: